createdAt,value
2018-01-18T00:00:02.374Z,7.90
2018-01-18T00:01:09.335Z,5.40
2018-01-18T00:02:16.251Z,5.20
2018-01-18T00:03:23.053Z,5.50
2018-01-18T00:04:29.900Z,3.90
2018-01-18T00:05:37.358Z,5.40
2018-01-18T00:06:43.450Z,7.20
2018-01-18T00:07:50.351Z,5.10
2018-01-18T00:08:57.187Z,5.40
2018-01-18T00:10:04.127Z,6.30
2018-01-18T00:11:10.891Z,6.10
2018-01-18T00:12:17.681Z,5.70
2018-01-18T00:13:24.508Z,7.60
2018-01-18T00:14:31.449Z,3.80
2018-01-18T00:15:38.348Z,4.30
2018-01-18T00:16:45.284Z,6.10
2018-01-18T00:17:52.424Z,4.70
2018-01-18T00:18:59.687Z,3.80
2018-01-18T00:20:06.343Z,4.10
2018-01-18T00:21:14.067Z,4.10
2018-01-18T00:22:20.036Z,5.70
2018-01-18T00:23:26.820Z,8.30
2018-01-18T00:24:33.641Z,4.80
2018-01-18T00:25:40.453Z,8.40
2018-01-18T00:26:47.218Z,7.10
2018-01-18T00:27:54.212Z,5.50
2018-01-18T00:29:01.026Z,6.00
2018-01-18T00:30:07.913Z,4.10
2018-01-18T00:31:14.712Z,7.90
2018-01-18T00:32:21.625Z,7.70
2018-01-18T00:33:28.592Z,10.10
2018-01-18T00:34:35.494Z,9.40
2018-01-18T00:35:42.283Z,4.70
2018-01-18T00:36:49.048Z,7.50
2018-01-18T00:37:55.923Z,8.30
2018-01-18T00:39:02.904Z,8.80
2018-01-18T00:40:09.601Z,7.10
2018-01-18T00:41:16.559Z,8.70
2018-01-18T00:42:23.317Z,9.60
2018-01-18T00:43:30.383Z,6.90
2018-01-18T00:44:37.077Z,6.10
2018-01-18T00:45:43.869Z,5.50
2018-01-18T00:46:50.463Z,5.80
2018-01-18T00:47:57.567Z,6.00
2018-01-18T00:49:04.428Z,4.30
2018-01-18T00:50:11.586Z,8.80
2018-01-18T00:51:17.989Z,9.00
2018-01-18T00:52:29.433Z,10.10
2018-01-18T00:53:31.933Z,5.30
2018-01-18T00:54:38.847Z,4.10
2018-01-18T00:55:45.838Z,7.90
2018-01-18T00:56:52.720Z,9.10
2018-01-18T00:57:59.629Z,4.50
2018-01-18T00:59:06.452Z,8.30
2018-01-18T01:00:13.279Z,8.50
2018-01-18T01:01:20.368Z,6.10
2018-01-18T01:02:27.207Z,11.90
2018-01-18T01:03:33.963Z,5.90
2018-01-18T01:04:41.016Z,7.30
2018-01-18T01:05:47.803Z,5.70
2018-01-18T01:06:54.664Z,6.30
2018-01-18T01:08:01.450Z,8.70
2018-01-18T01:09:08.224Z,7.00
2018-01-18T01:10:15.048Z,9.70
2018-01-18T01:11:21.916Z,8.40
2018-01-18T01:12:28.937Z,6.40
2018-01-18T01:13:35.778Z,9.80
2018-01-18T01:14:42.580Z,7.10
2018-01-18T01:15:49.360Z,9.90
2018-01-18T01:16:56.181Z,5.30
2018-01-18T01:18:02.956Z,7.90
2018-01-18T01:19:09.795Z,7.50
2018-01-18T01:20:16.649Z,7.30
2018-01-18T01:21:23.459Z,5.20
2018-01-18T01:22:30.207Z,9.10
2018-01-18T01:23:37.176Z,7.90
2018-01-18T01:24:44.305Z,9.80
2018-01-18T01:25:51.135Z,8.00
2018-01-18T01:26:58.002Z,7.40
2018-01-18T01:28:04.904Z,5.70
2018-01-18T01:29:11.837Z,8.40
2018-01-18T01:30:18.753Z,7.70
2018-01-18T01:31:25.539Z,6.40
2018-01-18T01:32:32.324Z,6.30
2018-01-18T01:33:39.096Z,8.00
2018-01-18T01:34:46.022Z,5.00
2018-01-18T01:35:52.873Z,5.80
2018-01-18T01:37:00.013Z,7.80
2018-01-18T01:38:06.785Z,6.90
2018-01-18T01:39:13.612Z,6.40
2018-01-18T01:40:20.393Z,6.30
2018-01-18T01:41:27.181Z,8.50
2018-01-18T01:42:39.106Z,10.30
2018-01-18T01:43:40.863Z,9.00
2018-01-18T01:44:47.744Z,6.30
2018-01-18T01:45:54.523Z,6.10
2018-01-18T01:47:01.316Z,5.40
2018-01-18T01:48:08.096Z,8.90
2018-01-18T01:49:14.964Z,7.90
2018-01-18T01:50:21.735Z,7.80
2018-01-18T01:51:28.544Z,5.30
2018-01-18T01:52:35.532Z,4.80
2018-01-18T01:53:42.285Z,5.90
2018-01-18T01:54:49.016Z,8.10
2018-01-18T01:55:55.800Z,10.00
2018-01-18T01:57:02.535Z,7.10
2018-01-18T01:58:09.256Z,6.60
2018-01-18T01:59:16.027Z,10.30
2018-01-18T02:00:22.923Z,5.20
2018-01-18T02:01:29.681Z,5.10
2018-01-18T02:02:36.519Z,9.10
2018-01-18T02:03:43.451Z,9.60
2018-01-18T02:04:50.180Z,10.40
2018-01-18T02:05:57.290Z,8.50
2018-01-18T02:07:03.809Z,7.60
2018-01-18T02:08:10.668Z,3.80
2018-01-18T02:09:17.403Z,4.30
2018-01-18T02:10:24.183Z,7.80
2018-01-18T02:11:30.955Z,6.90
2018-01-18T02:12:37.693Z,7.20
2018-01-18T02:13:44.461Z,7.30
2018-01-18T02:14:51.325Z,7.50
2018-01-18T02:15:58.107Z,7.10
2018-01-18T02:17:04.822Z,4.80
2018-01-18T02:18:11.551Z,5.80
2018-01-18T02:19:18.680Z,5.60
2018-01-18T02:20:25.452Z,6.00
2018-01-18T02:21:32.153Z,6.80
2018-01-18T02:22:38.919Z,5.50
2018-01-18T02:23:45.685Z,6.70
2018-01-18T02:24:52.554Z,6.70
2018-01-18T02:25:59.681Z,4.30
2018-01-18T02:27:06.526Z,8.40
2018-01-18T02:28:13.276Z,4.30
2018-01-18T02:29:20.126Z,9.30
2018-01-18T02:30:27.072Z,6.60
2018-01-18T02:31:34.016Z,6.70
2018-01-18T02:32:40.798Z,3.80
2018-01-18T02:33:47.700Z,6.70
2018-01-18T02:34:54.565Z,9.10
2018-01-18T02:36:01.362Z,4.50
2018-01-18T02:37:08.213Z,6.80
2018-01-18T02:38:15.022Z,5.60
2018-01-18T02:39:21.905Z,6.30
2018-01-18T02:40:28.710Z,7.70
2018-01-18T02:41:35.538Z,4.40
2018-01-18T02:42:42.442Z,7.60
2018-01-18T02:43:49.226Z,8.50
2018-01-18T02:44:56.144Z,5.00
2018-01-18T02:46:03.000Z,6.40
2018-01-18T02:47:09.755Z,6.70
2018-01-18T02:48:16.632Z,5.30
2018-01-18T02:49:23.408Z,3.90
2018-01-18T02:50:30.192Z,5.70
2018-01-18T02:51:37.020Z,5.70
2018-01-18T02:52:44.508Z,4.90
2018-01-18T02:53:50.800Z,3.60
2018-01-18T02:54:57.594Z,2.60
2018-01-18T02:56:04.463Z,4.20
2018-01-18T02:57:11.352Z,10.70
2018-01-18T02:58:18.132Z,5.60
2018-01-18T02:59:25.042Z,3.50
2018-01-18T03:00:31.852Z,5.30
2018-01-18T03:01:38.612Z,6.70
2018-01-18T03:02:45.487Z,4.60
2018-01-18T03:03:52.284Z,3.80
2018-01-18T03:04:59.066Z,4.40
2018-01-18T03:06:05.891Z,4.10
2018-01-18T03:07:12.651Z,5.00
2018-01-18T03:08:19.592Z,3.90
2018-01-18T03:09:26.398Z,6.10
2018-01-18T03:10:33.276Z,3.30
2018-01-18T03:11:40.156Z,3.30
2018-01-18T03:12:47.264Z,3.30
2018-01-18T03:13:53.720Z,2.90
2018-01-18T03:15:00.597Z,3.70
2018-01-18T03:16:07.441Z,5.10
2018-01-18T03:17:14.188Z,2.80
2018-01-18T03:18:21.028Z,2.90
2018-01-18T03:19:28.137Z,2.70
2018-01-18T03:20:34.989Z,3.40
2018-01-18T03:21:41.788Z,2.80
2018-01-18T03:22:48.603Z,3.40
2018-01-18T03:23:55.392Z,3.10
2018-01-18T03:25:02.444Z,2.40
2018-01-18T03:26:09.264Z,4.40
2018-01-18T03:27:15.956Z,2.70
2018-01-18T03:28:22.748Z,3.00
2018-01-18T03:29:29.746Z,3.60
2018-01-18T03:30:36.416Z,2.20
2018-01-18T03:31:43.152Z,2.10
2018-01-18T03:32:49.880Z,3.20
2018-01-18T03:33:57.024Z,3.00
2018-01-18T03:35:03.331Z,2.90
2018-01-18T03:36:10.191Z,2.70
2018-01-18T03:37:16.927Z,2.70
2018-01-18T03:38:23.691Z,2.80
2018-01-18T03:39:30.441Z,3.10
2018-01-18T03:40:37.277Z,2.20
2018-01-18T03:41:44.032Z,2.50
2018-01-18T03:42:50.863Z,1.90
2018-01-18T03:43:57.683Z,1.90
2018-01-18T03:45:04.444Z,2.10
2018-01-18T03:46:11.269Z,2.40
2018-01-18T03:47:18.120Z,1.80
2018-01-18T03:48:24.896Z,2.40
2018-01-18T03:49:31.655Z,5.20
2018-01-18T03:50:38.413Z,1.80
2018-01-18T03:51:45.207Z,1.70
2018-01-18T03:52:51.961Z,1.90
2018-01-18T03:53:58.790Z,2.40
2018-01-18T03:55:05.636Z,2.10
2018-01-18T03:56:12.452Z,2.10
2018-01-18T03:57:19.481Z,2.50
2018-01-18T03:58:26.316Z,1.90
2018-01-18T03:59:33.064Z,2.10
2018-01-18T04:00:40.072Z,2.00
2018-01-18T04:01:47.031Z,1.90
2018-01-18T04:02:53.796Z,2.40
2018-01-18T04:04:01.530Z,2.30
2018-01-18T04:05:07.431Z,3.10
2018-01-18T04:06:14.234Z,2.60
2018-01-18T04:07:21.092Z,2.10
2018-01-18T04:08:27.937Z,1.90
2018-01-18T04:09:35.142Z,2.10
2018-01-18T04:10:42.770Z,1.80
2018-01-18T04:11:49.156Z,2.10
2018-01-18T04:12:55.992Z,2.20
2018-01-18T04:14:02.764Z,2.20
2018-01-18T04:15:09.732Z,2.20
2018-01-18T04:16:16.508Z,2.10
2018-01-18T04:17:23.700Z,1.80
2018-01-18T04:18:30.229Z,2.00
2018-01-18T04:19:36.947Z,1.70
2018-01-18T04:20:43.732Z,2.00
2018-01-18T04:21:50.596Z,2.20
2018-01-18T04:22:57.447Z,1.80
2018-01-18T04:24:04.346Z,2.00
2018-01-18T04:25:11.128Z,1.60
2018-01-18T04:26:17.907Z,1.70
2018-01-18T04:27:24.860Z,1.50
2018-01-18T04:28:31.740Z,2.00
2018-01-18T04:29:38.547Z,2.00
2018-01-18T04:30:45.336Z,1.50
2018-01-18T04:31:52.108Z,1.90
2018-01-18T04:32:58.960Z,1.70
2018-01-18T04:34:05.766Z,1.40
2018-01-18T04:35:12.753Z,1.60
2018-01-18T04:36:19.517Z,1.50
2018-01-18T04:37:26.311Z,1.60
2018-01-18T04:38:33.180Z,1.50
2018-01-18T04:39:40.037Z,1.90
2018-01-18T04:40:46.808Z,1.60
2018-01-18T04:41:53.637Z,1.90
2018-01-18T04:43:00.388Z,1.80
2018-01-18T04:44:07.238Z,1.60
2018-01-18T04:45:14.048Z,1.40
2018-01-18T04:46:20.834Z,2.00
2018-01-18T04:47:27.637Z,1.90
2018-01-18T04:48:34.523Z,1.60
2018-01-18T04:49:41.676Z,1.90
2018-01-18T04:50:48.453Z,1.40
2018-01-18T04:51:55.355Z,1.80
2018-01-18T04:53:02.340Z,1.50
2018-01-18T04:54:09.156Z,1.40
2018-01-18T04:55:15.896Z,1.60
2018-01-18T04:56:22.628Z,1.40
2018-01-18T04:57:29.428Z,1.50
2018-01-18T04:58:36.313Z,1.60
2018-01-18T04:59:43.097Z,1.40
2018-01-18T05:00:49.851Z,1.70
2018-01-18T05:01:56.600Z,1.30
2018-01-18T05:03:03.624Z,2.30
2018-01-18T05:04:10.362Z,1.40
2018-01-18T05:05:17.184Z,1.50
2018-01-18T05:06:24.556Z,1.60
2018-01-18T05:07:31.004Z,1.70
2018-01-18T05:08:37.896Z,1.70
2018-01-18T05:09:44.648Z,1.80
2018-01-18T05:10:51.435Z,3.20
2018-01-18T05:11:58.212Z,1.30
2018-01-18T05:13:04.999Z,1.60
2018-01-18T05:14:11.759Z,1.40
2018-01-18T05:15:18.672Z,1.50
2018-01-18T05:16:25.432Z,1.20
2018-01-18T05:17:32.302Z,1.30
2018-01-18T05:18:39.235Z,1.30
2018-01-18T05:19:46.052Z,1.60
2018-01-18T05:20:52.864Z,1.30
2018-01-18T05:21:59.621Z,1.50
2018-01-18T05:23:06.492Z,1.40
2018-01-18T05:24:13.304Z,2.00
2018-01-18T05:25:20.051Z,1.90
2018-01-18T05:26:26.906Z,1.40
2018-01-18T05:27:33.717Z,1.30
2018-01-18T05:28:40.507Z,1.30
2018-01-18T05:29:47.439Z,1.40
2018-01-18T05:30:54.259Z,1.40
2018-01-18T05:32:01.139Z,1.30
2018-01-18T05:33:07.997Z,1.30
2018-01-18T05:34:14.785Z,1.70
2018-01-18T05:35:21.564Z,1.40
2018-01-18T05:36:28.449Z,1.50
2018-01-18T05:37:35.320Z,1.30
2018-01-18T05:38:42.128Z,1.50
2018-01-18T05:39:48.999Z,1.60
2018-01-18T05:40:55.820Z,1.50
2018-01-18T05:42:02.716Z,1.60
2018-01-18T05:43:10.550Z,1.50
2018-01-18T05:44:16.457Z,1.30
2018-01-18T05:45:23.356Z,1.60
2018-01-18T05:46:30.180Z,1.50
2018-01-18T05:47:37.215Z,1.70
2018-01-18T05:48:43.796Z,1.70
2018-01-18T05:49:50.769Z,1.40
2018-01-18T05:50:57.635Z,1.80
2018-01-18T05:52:04.468Z,1.30
2018-01-18T05:53:11.499Z,1.40
2018-01-18T05:54:18.508Z,1.60
2018-01-18T05:55:25.264Z,1.90
2018-01-18T05:56:32.112Z,1.50
2018-01-18T05:57:39.012Z,1.50
2018-01-18T05:58:45.946Z,1.80
2018-01-18T05:59:52.786Z,1.60
2018-01-18T06:00:59.657Z,1.80
2018-01-18T06:02:06.424Z,1.50
2018-01-18T06:03:13.239Z,1.30
2018-01-18T06:04:20.044Z,1.60
2018-01-18T06:05:26.867Z,1.60
2018-01-18T06:06:33.725Z,1.40
2018-01-18T06:07:40.816Z,1.50
2018-01-18T06:08:47.545Z,1.50
2018-01-18T06:09:54.367Z,1.30
2018-01-18T06:11:01.235Z,1.70
2018-01-18T06:12:07.996Z,1.50
2018-01-18T06:13:14.864Z,1.60
2018-01-18T06:14:21.639Z,2.00
2018-01-18T06:15:28.334Z,1.80
2018-01-18T06:16:35.144Z,1.90
2018-01-18T06:17:41.980Z,1.60
2018-01-18T06:18:48.803Z,1.70
2018-01-18T06:19:55.637Z,1.60
2018-01-18T06:21:02.489Z,1.50
2018-01-18T06:22:09.235Z,1.40
2018-01-18T06:23:16.020Z,1.60
2018-01-18T06:24:22.748Z,1.60
2018-01-18T06:25:33.565Z,1.50
2018-01-18T06:26:40.489Z,1.80
2018-01-18T06:27:42.141Z,1.60
2018-01-18T06:28:49.318Z,1.90
2018-01-18T06:29:56.099Z,1.70
2018-01-18T06:31:02.971Z,1.60
2018-01-18T06:32:10.763Z,1.50
2018-01-18T06:33:17.044Z,1.60
2018-01-18T06:34:23.795Z,1.50
2018-01-18T06:35:30.582Z,1.70
2018-01-18T06:36:37.378Z,2.10
2018-01-18T06:37:44.591Z,1.50
2018-01-18T06:38:51.322Z,1.50
2018-01-18T06:39:58.055Z,1.80
2018-01-18T06:41:04.792Z,2.20
2018-01-18T06:42:11.852Z,1.80
2018-01-18T06:43:18.580Z,1.80
2018-01-18T06:44:25.636Z,2.30
2018-01-18T06:45:32.628Z,1.60
2018-01-18T06:46:39.405Z,1.70
2018-01-18T06:47:46.125Z,1.80
2018-01-18T06:48:52.964Z,1.70
2018-01-18T06:49:59.653Z,2.00
2018-01-18T06:51:06.408Z,1.70
2018-01-18T06:52:13.108Z,1.70
2018-01-18T06:53:19.796Z,1.60
2018-01-18T06:54:26.467Z,1.90
2018-01-18T06:55:33.541Z,1.70
2018-01-18T06:56:40.210Z,1.50
2018-01-18T06:57:47.360Z,1.30
2018-01-18T06:58:54.364Z,1.30
2018-01-18T07:00:01.085Z,2.00
2018-01-18T07:01:08.079Z,1.50
2018-01-18T07:02:15.223Z,1.70
2018-01-18T07:03:22.061Z,1.40
2018-01-18T07:04:28.732Z,1.70
2018-01-18T07:05:35.388Z,1.50
2018-01-18T07:06:42.906Z,1.30
2018-01-18T07:07:49.067Z,1.40
2018-01-18T07:08:56.199Z,1.50
2018-01-18T07:10:03.379Z,5.20
2018-01-18T07:11:10.524Z,6.20
2018-01-18T07:12:17.673Z,7.20
2018-01-18T07:13:24.341Z,5.60
2018-01-18T07:14:30.999Z,4.20
2018-01-18T07:15:37.715Z,5.80
2018-01-18T07:16:44.656Z,7.40
2018-01-18T07:17:51.808Z,8.10
2018-01-18T07:18:58.943Z,9.90
2018-01-18T07:20:06.132Z,6.90
2018-01-18T07:21:13.274Z,1.50
2018-01-18T07:22:20.416Z,1.60
2018-01-18T07:23:34.320Z,1.60
2018-01-18T07:24:34.456Z,1.60
2018-01-18T07:25:41.660Z,1.40
2018-01-18T07:26:48.311Z,1.60
2018-01-18T07:27:54.967Z,2.20
2018-01-18T07:29:02.131Z,1.30
2018-01-18T07:30:09.010Z,1.30
2018-01-18T07:31:16.079Z,2.80
2018-01-18T07:32:22.587Z,1.70
2018-01-18T07:33:29.756Z,1.50
2018-01-18T07:34:36.900Z,1.60
2018-01-18T07:35:49.245Z,1.40
2018-01-18T07:36:51.004Z,1.40
2018-01-18T07:37:57.793Z,1.20
2018-01-18T07:39:04.508Z,1.20
2018-01-18T07:40:11.413Z,1.60
2018-01-18T07:41:18.155Z,1.80
2018-01-18T07:42:25.302Z,1.50
2018-01-18T07:43:31.985Z,1.40
2018-01-18T07:44:38.695Z,1.50
2018-01-18T07:45:45.362Z,1.90
2018-01-18T07:46:52.143Z,1.40
2018-01-18T07:47:59.375Z,1.20
2018-01-18T07:49:06.053Z,1.40
2018-01-18T07:50:12.804Z,1.90
2018-01-18T07:51:19.535Z,1.50
2018-01-18T07:52:26.393Z,2.80
2018-01-18T07:53:33.138Z,1.70
2018-01-18T07:54:39.860Z,2.00
2018-01-18T07:55:46.571Z,1.50
2018-01-18T07:56:53.311Z,1.10
2018-01-18T07:58:00.175Z,1.90
2018-01-18T07:59:06.904Z,1.30
2018-01-18T08:00:13.643Z,1.60
2018-01-18T08:01:20.307Z,1.60
2018-01-18T08:02:27.221Z,1.80
2018-01-18T08:03:34.001Z,1.40
2018-01-18T08:04:40.764Z,1.10
2018-01-18T08:05:47.512Z,1.40
2018-01-18T08:06:54.320Z,1.60
2018-01-18T08:08:01.034Z,1.20
2018-01-18T08:09:07.979Z,1.50
2018-01-18T08:10:14.741Z,1.50
2018-01-18T08:11:21.494Z,1.40
2018-01-18T08:12:28.228Z,2.90
2018-01-18T08:13:34.980Z,1.30
2018-01-18T08:14:41.831Z,2.60
2018-01-18T08:15:48.602Z,1.40
2018-01-18T08:16:55.320Z,1.60
2018-01-18T08:18:02.128Z,1.60
2018-01-18T08:19:08.918Z,1.70
2018-01-18T08:20:16.070Z,1.80
2018-01-18T08:21:22.728Z,2.00
2018-01-18T08:22:29.412Z,1.40
2018-01-18T08:23:36.134Z,1.80
2018-01-18T08:24:42.995Z,1.40
2018-01-18T08:25:49.811Z,1.20
2018-01-18T08:26:56.494Z,1.50
2018-01-18T08:28:03.485Z,1.80
2018-01-18T08:29:10.219Z,1.40
2018-01-18T08:30:16.981Z,1.60
2018-01-18T08:31:23.793Z,1.50
2018-01-18T08:32:30.484Z,1.30
2018-01-18T08:33:37.312Z,1.30
2018-01-18T08:34:44.005Z,1.80
2018-01-18T08:35:50.800Z,1.20
2018-01-18T08:36:57.537Z,1.30
2018-01-18T08:38:04.505Z,1.40
2018-01-18T08:39:11.188Z,1.30
2018-01-18T08:40:17.900Z,1.70
2018-01-18T08:41:24.619Z,1.50
2018-01-18T08:42:31.288Z,2.50
2018-01-18T08:43:38.087Z,2.80
2018-01-18T08:44:44.813Z,1.70
2018-01-18T08:45:51.515Z,1.40
2018-01-18T08:46:58.179Z,1.60
2018-01-18T08:48:04.876Z,1.70
2018-01-18T08:49:12.004Z,1.50
2018-01-18T08:50:18.762Z,1.70
2018-01-18T08:51:25.537Z,1.80
2018-01-18T08:52:32.372Z,2.10
2018-01-18T08:53:39.135Z,1.60
2018-01-18T08:54:46.070Z,2.10
2018-01-18T08:55:52.819Z,1.70
2018-01-18T08:56:59.795Z,1.80
2018-01-18T08:58:06.513Z,2.30
2018-01-18T08:59:13.231Z,2.10
2018-01-18T09:00:19.967Z,1.40
2018-01-18T09:01:26.782Z,1.80
2018-01-18T09:02:33.983Z,1.80
2018-01-18T09:03:41.008Z,1.80
2018-01-18T09:04:47.732Z,2.50
2018-01-18T09:05:54.877Z,1.90
2018-01-18T09:07:01.652Z,3.70
2018-01-18T09:08:08.359Z,1.70
2018-01-18T09:09:15.101Z,1.60
2018-01-18T09:10:21.837Z,1.80
2018-01-18T09:11:28.604Z,1.90
2018-01-18T09:12:35.330Z,2.60
2018-01-18T09:13:42.051Z,1.80
2018-01-18T09:14:48.769Z,1.40
2018-01-18T09:15:55.519Z,2.40
2018-01-18T09:17:02.279Z,2.10
2018-01-18T09:18:09.063Z,3.40
2018-01-18T09:19:16.024Z,2.30
2018-01-18T09:20:22.775Z,2.10
2018-01-18T09:21:30.922Z,1.90
2018-01-18T09:22:36.604Z,2.80
2018-01-18T09:23:43.328Z,2.20
2018-01-18T09:24:50.829Z,3.10
2018-01-18T09:25:57.208Z,1.80
2018-01-18T09:27:03.911Z,1.60
2018-01-18T09:28:10.716Z,2.30
2018-01-18T09:29:17.466Z,5.20
2018-01-18T09:30:24.290Z,2.80
2018-01-18T09:31:31.149Z,2.30
2018-01-18T09:32:37.865Z,3.70
2018-01-18T09:33:44.555Z,1.80
2018-01-18T09:34:51.328Z,2.90
2018-01-18T09:35:58.224Z,1.60
2018-01-18T09:37:04.935Z,1.70
2018-01-18T09:38:11.674Z,2.50
2018-01-18T09:39:18.785Z,2.50
2018-01-18T09:40:25.564Z,1.70
2018-01-18T09:41:32.576Z,2.70
2018-01-18T09:42:39.086Z,3.90
2018-01-18T09:43:46.246Z,1.80
2018-01-18T09:44:53.529Z,3.30
2018-01-18T09:46:00.280Z,2.00
2018-01-18T09:47:06.986Z,3.90
2018-01-18T09:48:13.768Z,5.30
2018-01-18T09:49:20.439Z,2.80
2018-01-18T09:50:27.155Z,2.60
2018-01-18T09:51:33.883Z,2.90
2018-01-18T09:52:40.568Z,4.90
2018-01-18T09:53:47.320Z,2.90
2018-01-18T09:54:54.004Z,3.70
2018-01-18T09:56:00.885Z,5.70
2018-01-18T09:57:07.644Z,3.30
2018-01-18T09:58:14.302Z,5.70
2018-01-18T09:59:21.003Z,8.30
2018-01-18T10:00:28.214Z,8.50
2018-01-18T10:01:35.023Z,8.70
2018-01-18T10:02:41.746Z,7.30
2018-01-18T10:03:48.472Z,7.60
2018-01-18T10:04:55.408Z,13.10
2018-01-18T10:06:02.381Z,8.50
2018-01-18T10:07:09.286Z,9.60
2018-01-18T10:08:16.292Z,6.40
2018-01-18T10:09:22.985Z,6.30
2018-01-18T10:10:29.868Z,8.20
2018-01-18T10:11:36.712Z,12.60
2018-01-18T10:12:43.400Z,9.40
2018-01-18T10:13:50.174Z,10.70
2018-01-18T10:14:57.195Z,7.90
2018-01-18T10:16:03.943Z,8.80
2018-01-18T10:17:10.643Z,8.10
2018-01-18T10:18:17.989Z,10.30
2018-01-18T10:19:24.231Z,6.10
2018-01-18T10:20:30.986Z,9.50
2018-01-18T10:21:37.957Z,6.20
2018-01-18T10:22:44.661Z,6.90
2018-01-18T10:23:51.408Z,6.00
2018-01-18T10:25:01.397Z,10.30
2018-01-18T10:26:05.099Z,10.70
2018-01-18T10:27:12.019Z,7.50
2018-01-18T10:28:18.740Z,9.60
2018-01-18T10:29:25.467Z,4.60
2018-01-18T10:30:32.419Z,7.30
2018-01-18T10:31:39.383Z,7.80
2018-01-18T10:32:46.112Z,4.50
2018-01-18T10:33:53.209Z,6.50
2018-01-18T10:35:00.104Z,9.50
2018-01-18T10:36:07.180Z,8.80
2018-01-18T10:37:13.875Z,9.80
2018-01-18T10:38:20.564Z,7.50
2018-01-18T10:39:27.363Z,8.70
2018-01-18T10:40:34.477Z,8.30
2018-01-18T10:41:41.388Z,7.10
2018-01-18T10:42:48.172Z,8.10
2018-01-18T10:43:54.907Z,4.50
2018-01-18T10:45:01.603Z,6.10
2018-01-18T10:46:08.411Z,8.20
2018-01-18T10:47:15.127Z,7.40
2018-01-18T10:48:21.837Z,7.60
2018-01-18T10:49:28.924Z,3.90
2018-01-18T10:50:35.264Z,10.00
2018-01-18T10:51:41.963Z,7.90
2018-01-18T10:52:48.739Z,7.50
2018-01-18T10:53:55.500Z,14.40
2018-01-18T10:55:02.163Z,10.80
2018-01-18T10:56:09.324Z,10.70
2018-01-18T10:57:16.040Z,6.10
2018-01-18T10:58:22.770Z,9.50
2018-01-18T10:59:29.552Z,10.10
2018-01-18T11:00:36.248Z,13.00
2018-01-18T11:01:42.951Z,12.80
2018-01-18T11:02:49.651Z,15.80
2018-01-18T11:03:56.337Z,13.60
2018-01-18T11:05:03.064Z,11.30
2018-01-18T11:06:09.867Z,12.80
2018-01-18T11:07:16.510Z,12.10
2018-01-18T11:08:23.262Z,10.60
2018-01-18T11:09:30.419Z,14.80
2018-01-18T11:10:37.193Z,15.40
2018-01-18T11:11:43.896Z,10.40
2018-01-18T11:12:50.685Z,7.10
2018-01-18T11:13:57.372Z,11.00
2018-01-18T11:15:04.024Z,8.70
2018-01-18T11:16:11.184Z,11.40
2018-01-18T11:17:17.915Z,8.70
2018-01-18T11:18:24.620Z,9.30
2018-01-18T11:19:31.279Z,6.30
2018-01-18T11:20:38.000Z,13.00
2018-01-18T11:21:44.777Z,10.20
2018-01-18T11:22:51.953Z,9.50
2018-01-18T11:23:58.684Z,9.20
2018-01-18T11:25:05.406Z,16.10
2018-01-18T11:26:12.096Z,9.20
2018-01-18T11:27:18.805Z,10.70
2018-01-18T11:28:25.621Z,16.50
2018-01-18T11:29:32.335Z,14.60
2018-01-18T11:30:39.201Z,12.30
2018-01-18T11:31:46.068Z,15.70
2018-01-18T11:32:52.875Z,10.80
2018-01-18T11:33:59.603Z,11.60
2018-01-18T11:35:06.263Z,9.40
2018-01-18T11:36:13.416Z,11.70
2018-01-18T11:37:20.576Z,18.10
2018-01-18T11:38:27.402Z,19.20
2018-01-18T11:39:34.126Z,14.40
2018-01-18T11:40:40.803Z,11.40
2018-01-18T11:41:47.510Z,12.80
2018-01-18T11:42:54.284Z,7.90
2018-01-18T11:44:01.613Z,9.90
2018-01-18T11:45:08.295Z,9.30
2018-01-18T11:46:14.974Z,12.10
2018-01-18T11:47:22.131Z,11.00
2018-01-18T11:48:28.828Z,15.40
2018-01-18T11:49:35.891Z,10.80
2018-01-18T11:50:42.616Z,10.50
2018-01-18T11:51:49.276Z,11.10
2018-01-18T11:52:56.080Z,8.30
2018-01-18T11:54:02.871Z,10.00
2018-01-18T11:55:09.548Z,10.20
2018-01-18T11:56:16.232Z,12.70
2018-01-18T11:57:22.890Z,15.50
2018-01-18T11:58:30.055Z,11.00
2018-01-18T11:59:36.753Z,13.10
2018-01-18T12:00:43.772Z,14.50
2018-01-18T12:01:50.588Z,8.10
2018-01-18T12:02:57.368Z,7.80
2018-01-18T12:04:05.445Z,13.30
2018-01-18T12:05:11.264Z,10.30
2018-01-18T12:06:17.956Z,13.10
2018-01-18T12:07:24.645Z,6.50
2018-01-18T12:08:31.336Z,11.40
2018-01-18T12:09:38.044Z,12.70
2018-01-18T12:10:44.708Z,10.80
2018-01-18T12:11:51.435Z,9.20
2018-01-18T12:12:58.155Z,9.40
2018-01-18T12:14:04.954Z,14.40
2018-01-18T12:15:11.708Z,6.90
2018-01-18T12:16:18.406Z,12.40
2018-01-18T12:17:25.399Z,11.40
2018-01-18T12:18:32.095Z,11.30
2018-01-18T12:19:38.832Z,6.90
2018-01-18T12:20:45.619Z,8.90
2018-01-18T12:21:52.318Z,13.40
2018-01-18T12:22:59.019Z,13.60
2018-01-18T12:24:06.192Z,9.10
2018-01-18T12:25:12.920Z,8.30
2018-01-18T12:26:19.599Z,9.50
2018-01-18T12:27:26.272Z,8.90
2018-01-18T12:28:33.076Z,10.70
2018-01-18T12:29:39.812Z,11.40
2018-01-18T12:30:46.619Z,12.70
2018-01-18T12:31:53.296Z,10.10
2018-01-18T12:32:59.984Z,6.30
2018-01-18T12:34:06.754Z,15.60
2018-01-18T12:35:13.482Z,12.20
2018-01-18T12:36:20.211Z,9.10
2018-01-18T12:37:26.899Z,9.40
2018-01-18T12:38:33.608Z,9.90
2018-01-18T12:39:40.771Z,9.40
2018-01-18T12:40:47.972Z,16.60
2018-01-18T12:41:54.747Z,14.30
2018-01-18T12:43:01.452Z,12.90
2018-01-18T12:44:08.204Z,9.70
2018-01-18T12:45:14.907Z,11.40
2018-01-18T12:46:21.618Z,14.00
2018-01-18T12:47:28.372Z,11.00
2018-01-18T12:48:35.548Z,10.20
2018-01-18T12:49:42.289Z,13.60
2018-01-18T12:50:49.046Z,9.10
2018-01-18T12:51:55.796Z,4.90
2018-01-18T12:53:02.622Z,6.80
2018-01-18T12:54:09.566Z,8.80
2018-01-18T12:55:16.394Z,11.00
2018-01-18T12:56:23.134Z,6.00
2018-01-18T12:57:29.904Z,9.10
2018-01-18T12:58:36.584Z,12.50
2018-01-18T12:59:43.372Z,6.10
2018-01-18T13:00:50.087Z,4.60
2018-01-18T13:01:56.859Z,6.30
2018-01-18T13:03:03.606Z,5.90
2018-01-18T13:04:10.450Z,6.10
2018-01-18T13:05:17.138Z,7.60
2018-01-18T13:06:23.819Z,5.60
2018-01-18T13:07:30.552Z,8.20
2018-01-18T13:08:37.260Z,5.60
2018-01-18T13:09:43.927Z,7.30
2018-01-18T13:10:50.691Z,6.20
2018-01-18T13:11:57.346Z,6.40
2018-01-18T13:13:04.511Z,6.90
2018-01-18T13:14:11.177Z,4.80
2018-01-18T13:15:17.867Z,5.10
2018-01-18T13:16:24.630Z,3.30
2018-01-18T13:17:31.498Z,6.30
2018-01-18T13:18:38.202Z,3.90
2018-01-18T13:19:44.947Z,3.70
2018-01-18T13:20:51.661Z,4.10
2018-01-18T13:21:58.815Z,7.20
2018-01-18T13:23:05.503Z,6.10
2018-01-18T13:24:12.260Z,4.20
2018-01-18T13:25:19.387Z,5.30
2018-01-18T13:26:26.568Z,3.90
2018-01-18T13:27:33.762Z,6.90
2018-01-18T13:28:40.431Z,5.50
2018-01-18T13:29:47.132Z,5.10
2018-01-18T13:30:53.937Z,3.80
2018-01-18T13:32:00.692Z,2.40
2018-01-18T13:33:07.868Z,7.20
2018-01-18T13:34:14.541Z,5.20
2018-01-18T13:35:21.251Z,6.40
2018-01-18T13:36:27.903Z,6.30
2018-01-18T13:37:34.597Z,5.30
2018-01-18T13:38:41.342Z,4.10
2018-01-18T13:39:48.150Z,4.00
2018-01-18T13:40:54.856Z,6.50
2018-01-18T13:42:01.632Z,6.20
2018-01-18T13:43:08.348Z,4.10
2018-01-18T13:44:15.052Z,3.80
2018-01-18T13:45:21.750Z,6.80
2018-01-18T13:46:28.510Z,4.60
2018-01-18T13:47:35.213Z,4.50
2018-01-18T13:48:41.930Z,5.00
2018-01-18T13:49:48.704Z,2.50
2018-01-18T13:50:55.428Z,4.00
2018-01-18T13:52:02.097Z,4.00
2018-01-18T13:53:09.283Z,3.60
2018-01-18T13:54:16.074Z,2.20
2018-01-18T13:55:22.848Z,3.40
2018-01-18T13:56:29.520Z,5.40
2018-01-18T13:57:36.466Z,2.60
2018-01-18T13:58:43.187Z,6.10
2018-01-18T13:59:49.868Z,2.20
2018-01-18T14:00:57.032Z,3.20
2018-01-18T14:02:03.752Z,2.20
2018-01-18T14:03:10.464Z,3.20
2018-01-18T14:04:17.164Z,6.40
2018-01-18T14:05:24.307Z,5.50
2018-01-18T14:06:31.089Z,4.90
2018-01-18T14:07:38.028Z,5.80
2018-01-18T14:08:44.739Z,4.50
2018-01-18T14:09:51.883Z,2.00
2018-01-18T14:10:58.672Z,3.60
2018-01-18T14:12:05.860Z,5.20
2018-01-18T14:13:12.523Z,4.40
2018-01-18T14:14:19.251Z,4.50
2018-01-18T14:15:25.936Z,3.90
2018-01-18T14:16:32.651Z,4.00
2018-01-18T14:17:39.565Z,4.00
2018-01-18T14:18:46.252Z,2.40
2018-01-18T14:19:53.002Z,4.00
2018-01-18T14:20:59.747Z,5.40
2018-01-18T14:22:06.488Z,2.20
2018-01-18T14:23:13.182Z,5.30
2018-01-18T14:24:19.929Z,5.20
2018-01-18T14:25:26.643Z,4.80
2018-01-18T14:26:33.333Z,3.40
2018-01-18T14:27:40.020Z,4.40
2018-01-18T14:28:46.813Z,2.50
2018-01-18T14:29:53.544Z,3.50
2018-01-18T14:31:00.284Z,4.10
2018-01-18T14:32:06.976Z,3.50
2018-01-18T14:33:13.680Z,4.90
2018-01-18T14:34:20.464Z,3.00
2018-01-18T14:35:27.211Z,2.40
2018-01-18T14:36:33.978Z,4.60
2018-01-18T14:37:40.718Z,4.10
2018-01-18T14:38:47.508Z,4.30
2018-01-18T14:39:54.215Z,4.70
2018-01-18T14:41:00.967Z,5.40
2018-01-18T14:42:07.688Z,2.80
2018-01-18T14:43:14.363Z,3.50
2018-01-18T14:44:21.100Z,4.20
2018-01-18T14:45:27.881Z,2.60